sensor_id;sensor_type;location;lat;lon;timestamp;pressure;altitude;pressure_sealevel;temperature;humidity
62946;BME280;52164;52.212;-1.010;2023-04-25T00:02:04;100668.58;;;4.20;65.93
62946;BME280;52164;52.212;-1.010;2023-04-25T00:04:30;100672.69;;;4.16;65.91
62946;BME280;52164;52.212;-1.010;2023-04-25T00:07:06;100669.71;;;4.11;65.53
62946;BME280;52164;52.212;-1.010;2023-04-25T00:09:31;100674.39;;;4.08;65.94
62946;BME280;52164;52.212;-1.010;2023-04-25T00:11:57;100676.82;;;4.06;65.59
62946;BME280;52164;52.212;-1.010;2023-04-25T00:14:23;100680.77;;;4.02;65.30
62946;BME280;52164;52.212;-1.010;2023-04-25T00:16:49;100683.33;;;3.99;65.77
62946;BME280;52164;52.212;-1.010;2023-04-25T00:19:18;100683.40;;;3.96;66.08
62946;BME280;52164;52.212;-1.010;2023-04-25T00:21:44;100681.30;;;3.90;66.35
62946;BME280;52164;52.212;-1.010;2023-04-25T00:24:11;100677.84;;;3.86;66.66
62946;BME280;52164;52.212;-1.010;2023-04-25T00:26:37;100673.69;;;3.83;66.84
62946;BME280;52164;52.212;-1.010;2023-04-25T00:29:02;100674.83;;;3.80;67.20
62946;BME280;52164;52.212;-1.010;2023-04-25T00:31:27;100676.70;;;3.78;67.34
62946;BME280;52164;52.212;-1.010;2023-04-25T00:33:54;100677.46;;;3.74;67.73
62946;BME280;52164;52.212;-1.010;2023-04-25T00:36:19;100679.73;;;3.73;67.90
62946;BME280;52164;52.212;-1.010;2023-04-25T00:38:44;100675.99;;;3.73;67.83
62946;BME280;52164;52.212;-1.010;2023-04-25T00:41:10;100677.52;;;3.70;68.16
62946;BME280;52164;52.212;-1.010;2023-04-25T00:43:36;100680.48;;;3.68;68.72
62946;BME280;52164;52.212;-1.010;2023-04-25T00:46:01;100684.96;;;3.65;68.66
62946;BME280;52164;52.212;-1.010;2023-04-25T00:48:26;100688.66;;;3.60;68.23
62946;BME280;52164;52.212;-1.010;2023-04-25T00:50:53;100689.16;;;3.53;68.50
62946;BME280;52164;52.212;-1.010;2023-04-25T00:53:19;100685.90;;;3.44;68.59
62946;BME280;52164;52.212;-1.010;2023-04-25T00:55:44;100693.39;;;3.36;68.87
62946;BME280;52164;52.212;-1.010;2023-04-25T00:58:10;100694.39;;;3.28;69.09
62946;BME280;52164;52.212;-1.010;2023-04-25T01:00:36;100693.65;;;3.22;69.31
62946;BME280;52164;52.212;-1.010;2023-04-25T01:03:01;100697.00;;;3.16;69.50
62946;BME280;52164;52.212;-1.010;2023-04-25T01:05:27;100699.80;;;3.10;69.68
62946;BME280;52164;52.212;-1.010;2023-04-25T01:07:53;100701.23;;;3.06;69.93
62946;BME280;52164;52.212;-1.010;2023-04-25T01:10:19;100703.74;;;3.02;69.81
62946;BME280;52164;52.212;-1.010;2023-04-25T01:12:44;100707.66;;;2.97;69.79
62946;BME280;52164;52.212;-1.010;2023-04-25T01:15:11;100709.98;;;2.93;70.16
62946;BME280;52164;52.212;-1.010;2023-04-25T01:17:37;100711.32;;;2.91;70.14
62946;BME280;52164;52.212;-1.010;2023-04-25T01:20:03;100708.09;;;2.89;70.30
62946;BME280;52164;52.212;-1.010;2023-04-25T01:22:29;100708.67;;;2.86;70.15
62946;BME280;52164;52.212;-1.010;2023-04-25T01:24:54;100714.52;;;2.81;70.33
62946;BME280;52164;52.212;-1.010;2023-04-25T01:27:20;100712.77;;;2.77;70.16
62946;BME280;52164;52.212;-1.010;2023-04-25T01:29:46;100711.91;;;2.72;70.34
62946;BME280;52164;52.212;-1.010;2023-04-25T01:32:12;100713.11;;;2.66;70.33
62946;BME280;52164;52.212;-1.010;2023-04-25T01:34:38;100712.20;;;2.60;70.76
62946;BME280;52164;52.212;-1.010;2023-04-25T01:37:04;100712.02;;;2.55;70.75
62946;BME280;52164;52.212;-1.010;2023-04-25T01:39:29;100708.19;;;2.52;70.84
62946;BME280;52164;52.212;-1.010;2023-04-25T01:41:54;100712.05;;;2.51;71.09
62946;BME280;52164;52.212;-1.010;2023-04-25T01:44:20;100709.75;;;2.50;70.96
62946;BME280;52164;52.212;-1.010;2023-04-25T01:46:45;100710.10;;;2.50;71.25
62946;BME280;52164;52.212;-1.010;2023-04-25T01:49:19;100710.60;;;2.50;71.47
62946;BME280;52164;52.212;-1.010;2023-04-25T01:51:45;100713.92;;;2.49;71.25
62946;BME280;52164;52.212;-1.010;2023-04-25T01:54:10;100714.55;;;2.47;71.52
62946;BME280;52164;52.212;-1.010;2023-04-25T01:56:36;100716.02;;;2.44;71.61
62946;BME280;52164;52.212;-1.010;2023-04-25T01:59:02;100719.01;;;2.44;71.58
62946;BME280;52164;52.212;-1.010;2023-04-25T02:01:28;100718.63;;;2.43;71.41
62946;BME280;52164;52.212;-1.010;2023-04-25T02:03:53;100718.06;;;2.42;71.46
62946;BME280;52164;52.212;-1.010;2023-04-25T02:06:18;100714.86;;;2.41;71.86
62946;BME280;52164;52.212;-1.010;2023-04-25T02:08:44;100716.01;;;2.39;71.91
62946;BME280;52164;52.212;-1.010;2023-04-25T02:11:09;100713.98;;;2.36;71.75
62946;BME280;52164;52.212;-1.010;2023-04-25T02:13:34;100719.02;;;2.34;71.90
62946;BME280;52164;52.212;-1.010;2023-04-25T02:16:00;100722.09;;;2.32;71.72
62946;BME280;52164;52.212;-1.010;2023-04-25T02:18:25;100719.77;;;2.26;71.98
62946;BME280;52164;52.212;-1.010;2023-04-25T02:20:51;100723.89;;;2.23;72.33
62946;BME280;52164;52.212;-1.010;2023-04-25T02:23:16;100719.42;;;2.21;72.38
62946;BME280;52164;52.212;-1.010;2023-04-25T02:25:44;100722.02;;;2.20;72.72
62946;BME280;52164;52.212;-1.010;2023-04-25T02:28:09;100724.95;;;2.19;72.77
62946;BME280;52164;52.212;-1.010;2023-04-25T02:30:35;100725.63;;;2.18;72.76
62946;BME280;52164;52.212;-1.010;2023-04-25T02:33:01;100726.27;;;2.15;72.49
62946;BME280;52164;52.212;-1.010;2023-04-25T02:35:26;100728.16;;;2.15;72.44
62946;BME280;52164;52.212;-1.010;2023-04-25T02:37:51;100729.75;;;2.15;72.19
62946;BME280;52164;52.212;-1.010;2023-04-25T02:40:17;100731.98;;;2.13;72.01
62946;BME280;52164;52.212;-1.010;2023-04-25T02:42:42;100731.10;;;2.09;72.12
62946;BME280;52164;52.212;-1.010;2023-04-25T02:45:08;100731.95;;;2.03;72.34
62946;BME280;52164;52.212;-1.010;2023-04-25T02:47:33;100730.92;;;1.99;72.64
62946;BME280;52164;52.212;-1.010;2023-04-25T02:50:00;100731.04;;;1.98;72.68
62946;BME280;52164;52.212;-1.010;2023-04-25T02:52:26;100732.33;;;1.95;72.70
62946;BME280;52164;52.212;-1.010;2023-04-25T02:54:55;100733.73;;;1.90;72.50
62946;BME280;52164;52.212;-1.010;2023-04-25T02:57:20;100733.23;;;1.86;72.59
62946;BME280;52164;52.212;-1.010;2023-04-25T02:59:46;100733.07;;;1.82;72.87
62946;BME280;52164;52.212;-1.010;2023-04-25T03:02:11;100736.95;;;1.78;72.82
62946;BME280;52164;52.212;-1.010;2023-04-25T03:04:36;100740.63;;;1.76;72.92
62946;BME280;52164;52.212;-1.010;2023-04-25T03:07:02;100740.43;;;1.76;72.66
62946;BME280;52164;52.212;-1.010;2023-04-25T03:09:29;100737.52;;;1.74;72.66
62946;BME280;52164;52.212;-1.010;2023-04-25T03:11:54;100734.80;;;1.72;72.54
62946;BME280;52164;52.212;-1.010;2023-04-25T03:14:19;100732.30;;;1.71;72.77
62946;BME280;52164;52.212;-1.010;2023-04-25T03:16:45;100736.70;;;1.71;72.98
62946;BME280;52164;52.212;-1.010;2023-04-25T03:19:10;100741.67;;;1.72;72.90
62946;BME280;52164;52.212;-1.010;2023-04-25T03:21:36;100741.55;;;1.73;73.05
62946;BME280;52164;52.212;-1.010;2023-04-25T03:24:02;100741.46;;;1.76;73.04
62946;BME280;52164;52.212;-1.010;2023-04-25T03:26:27;100749.48;;;1.78;73.08
62946;BME280;52164;52.212;-1.010;2023-04-25T03:28:53;100756.76;;;1.80;73.04
62946;BME280;52164;52.212;-1.010;2023-04-25T03:31:18;100764.52;;;1.81;73.27
62946;BME280;52164;52.212;-1.010;2023-04-25T03:33:43;100760.46;;;1.80;73.17
62946;BME280;52164;52.212;-1.010;2023-04-25T03:36:09;100759.51;;;1.78;72.94
62946;BME280;52164;52.212;-1.010;2023-04-25T03:38:34;100763.02;;;1.74;73.01
62946;BME280;52164;52.212;-1.010;2023-04-25T03:41:00;100763.03;;;1.70;72.88
62946;BME280;52164;52.212;-1.010;2023-04-25T03:43:25;100771.52;;;1.66;72.83
62946;BME280;52164;52.212;-1.010;2023-04-25T03:45:51;100771.88;;;1.62;72.87
62946;BME280;52164;52.212;-1.010;2023-04-25T03:48:16;100771.70;;;1.57;73.27
62946;BME280;52164;52.212;-1.010;2023-04-25T03:50:42;100772.92;;;1.53;73.06
62946;BME280;52164;52.212;-1.010;2023-04-25T03:53:07;100775.09;;;1.50;73.58
62946;BME280;52164;52.212;-1.010;2023-04-25T03:55:33;100778.02;;;1.49;73.55
62946;BME280;52164;52.212;-1.010;2023-04-25T03:57:58;100780.33;;;1.49;73.79
62946;BME280;52164;52.212;-1.010;2023-04-25T04:00:24;100783.82;;;1.48;73.66
62946;BME280;52164;52.212;-1.010;2023-04-25T04:02:49;100784.60;;;1.46;73.78
62946;BME280;52164;52.212;-1.010;2023-04-25T04:05:14;100786.44;;;1.43;73.56
62946;BME280;52164;52.212;-1.010;2023-04-25T04:07:40;100790.72;;;1.40;73.41
62946;BME280;52164;52.212;-1.010;2023-04-25T04:10:06;100791.66;;;1.38;73.41
62946;BME280;52164;52.212;-1.010;2023-04-25T04:12:31;100794.70;;;1.35;73.57
62946;BME280;52164;52.212;-1.010;2023-04-25T04:14:57;100797.72;;;1.31;73.44
62946;BME280;52164;52.212;-1.010;2023-04-25T04:17:22;100797.23;;;1.28;73.55
62946;BME280;52164;52.212;-1.010;2023-04-25T04:19:47;100798.65;;;1.24;73.65
62946;BME280;52164;52.212;-1.010;2023-04-25T04:22:13;100793.48;;;1.22;73.61
62946;BME280;52164;52.212;-1.010;2023-04-25T04:24:38;100794.38;;;1.22;73.79
62946;BME280;52164;52.212;-1.010;2023-04-25T04:27:03;100788.94;;;1.23;73.74
62946;BME280;52164;52.212;-1.010;2023-04-25T04:29:29;100793.35;;;1.23;73.67
62946;BME280;52164;52.212;-1.010;2023-04-25T04:31:54;100795.80;;;1.23;73.82
62946;BME280;52164;52.212;-1.010;2023-04-25T04:34:19;100793.84;;;1.23;73.58
62946;BME280;52164;52.212;-1.010;2023-04-25T04:36:45;100789.69;;;1.20;73.45
62946;BME280;52164;52.212;-1.010;2023-04-25T04:39:11;100786.66;;;1.19;73.56
62946;BME280;52164;52.212;-1.010;2023-04-25T04:41:37;100789.51;;;1.20;73.43
62946;BME280;52164;52.212;-1.010;2023-04-25T04:44:02;100794.27;;;1.20;73.31
62946;BME280;52164;52.212;-1.010;2023-04-25T04:46:28;100796.44;;;1.21;73.46
62946;BME280;52164;52.212;-1.010;2023-04-25T04:48:53;100789.80;;;1.22;73.48
62946;BME280;52164;52.212;-1.010;2023-04-25T04:51:19;100789.65;;;1.23;73.25
62946;BME280;52164;52.212;-1.010;2023-04-25T04:53:45;100797.44;;;1.25;73.13
62946;BME280;52164;52.212;-1.010;2023-04-25T04:56:11;100806.90;;;1.24;73.11
62946;BME280;52164;52.212;-1.010;2023-04-25T04:58:36;100806.70;;;1.23;73.17
62946;BME280;52164;52.212;-1.010;2023-04-25T05:01:02;100807.85;;;1.21;72.91
62946;BME280;52164;52.212;-1.010;2023-04-25T05:03:27;100812.34;;;1.19;72.85
62946;BME280;52164;52.212;-1.010;2023-04-25T05:05:52;100822.10;;;1.17;73.04
62946;BME280;52164;52.212;-1.010;2023-04-25T05:08:18;100826.44;;;1.16;73.24
62946;BME280;52164;52.212;-1.010;2023-04-25T05:10:47;100828.54;;;1.16;73.38
62946;BME280;52164;52.212;-1.010;2023-04-25T05:13:12;100829.27;;;1.16;73.04
62946;BME280;52164;52.212;-1.010;2023-04-25T05:15:38;100835.08;;;1.16;73.07
62946;BME280;52164;52.212;-1.010;2023-04-25T05:18:03;100838.08;;;1.17;73.21
62946;BME280;52164;52.212;-1.010;2023-04-25T05:20:28;100830.03;;;1.18;73.22
62946;BME280;52164;52.212;-1.010;2023-04-25T05:22:55;100831.89;;;1.20;73.45
62946;BME280;52164;52.212;-1.010;2023-04-25T05:25:20;100834.38;;;1.21;73.47
62946;BME280;52164;52.212;-1.010;2023-04-25T05:27:45;100836.05;;;1.23;73.50
62946;BME280;52164;52.212;-1.010;2023-04-25T05:30:11;100842.29;;;1.25;73.40
62946;BME280;52164;52.212;-1.010;2023-04-25T05:32:36;100849.55;;;1.26;73.43
62946;BME280;52164;52.212;-1.010;2023-04-25T05:35:01;100852.39;;;1.27;73.26
62946;BME280;52164;52.212;-1.010;2023-04-25T05:37:27;100850.59;;;1.30;73.23
62946;BME280;52164;52.212;-1.010;2023-04-25T05:39:55;100854.99;;;1.34;73.29
62946;BME280;52164;52.212;-1.010;2023-04-25T05:42:20;100854.86;;;1.39;73.45
62946;BME280;52164;52.212;-1.010;2023-04-25T05:44:46;100859.13;;;1.45;73.43
62946;BME280;52164;52.212;-1.010;2023-04-25T05:47:11;100866.25;;;1.51;73.42
62946;BME280;52164;52.212;-1.010;2023-04-25T05:49:36;100869.89;;;1.58;73.12
62946;BME280;52164;52.212;-1.010;2023-04-25T05:52:04;100870.37;;;1.65;72.84
62946;BME280;52164;52.212;-1.010;2023-04-25T05:54:29;100874.77;;;1.73;72.87
62946;BME280;52164;52.212;-1.010;2023-04-25T05:56:56;100877.79;;;1.83;72.78
62946;BME280;52164;52.212;-1.010;2023-04-25T05:59:21;100883.30;;;1.93;72.69
62946;BME280;52164;52.212;-1.010;2023-04-25T06:01:46;100881.17;;;2.01;72.50
62946;BME280;52164;52.212;-1.010;2023-04-25T06:04:12;100879.92;;;2.10;72.09
62946;BME280;52164;52.212;-1.010;2023-04-25T06:06:37;100889.05;;;2.18;72.17
62946;BME280;52164;52.212;-1.010;2023-04-25T06:09:02;100887.05;;;2.25;72.17
62946;BME280;52164;52.212;-1.010;2023-04-25T06:11:31;100878.40;;;2.34;72.11
62946;BME280;52164;52.212;-1.010;2023-04-25T06:13:56;100869.54;;;2.42;72.07
62946;BME280;52164;52.212;-1.010;2023-04-25T06:16:22;100863.50;;;2.49;71.55
62946;BME280;52164;52.212;-1.010;2023-04-25T06:18:47;100860.64;;;2.57;71.10
62946;BME280;52164;52.212;-1.010;2023-04-25T06:21:12;100866.91;;;2.65;70.96
62946;BME280;52164;52.212;-1.010;2023-04-25T06:23:38;100873.69;;;2.72;70.73
62946;BME280;52164;52.212;-1.010;2023-04-25T06:26:03;100877.46;;;2.78;70.35
62946;BME280;52164;52.212;-1.010;2023-04-25T06:28:28;100886.63;;;2.83;70.05
62946;BME280;52164;52.212;-1.010;2023-04-25T06:30:54;100888.50;;;2.86;70.07
62946;BME280;52164;52.212;-1.010;2023-04-25T06:33:19;100893.65;;;2.92;69.83
62946;BME280;52164;52.212;-1.010;2023-04-25T06:35:46;100895.58;;;2.96;70.43
62946;BME280;52164;52.212;-1.010;2023-04-25T06:38:11;100889.93;;;3.01;69.99
62946;BME280;52164;52.212;-1.010;2023-04-25T06:40:37;100894.90;;;3.07;69.70
62946;BME280;52164;52.212;-1.010;2023-04-25T06:43:02;100899.15;;;3.12;69.75
62946;BME280;52164;52.212;-1.010;2023-04-25T06:45:27;100904.14;;;3.18;69.71
62946;BME280;52164;52.212;-1.010;2023-04-25T06:47:52;100912.70;;;3.26;69.81
62946;BME280;52164;52.212;-1.010;2023-04-25T06:50:18;100914.30;;;3.31;69.68
62946;BME280;52164;52.212;-1.010;2023-04-25T06:52:44;100917.62;;;3.41;69.58
62946;BME280;52164;52.212;-1.010;2023-04-25T06:55:09;100914.39;;;3.48;69.65
62946;BME280;52164;52.212;-1.010;2023-04-25T06:57:34;100915.00;;;3.57;69.58
62946;BME280;52164;52.212;-1.010;2023-04-25T07:00:00;100914.71;;;3.63;69.31
62946;BME280;52164;52.212;-1.010;2023-04-25T07:02:25;100918.73;;;3.72;69.28
62946;BME280;52164;52.212;-1.010;2023-04-25T07:04:50;100924.14;;;3.81;69.13
62946;BME280;52164;52.212;-1.010;2023-04-25T07:07:15;100921.09;;;3.90;69.02
62946;BME280;52164;52.212;-1.010;2023-04-25T07:09:42;100921.48;;;4.02;68.82
62946;BME280;52164;52.212;-1.010;2023-04-25T07:12:07;100918.89;;;4.14;69.06
62946;BME280;52164;52.212;-1.010;2023-04-25T07:14:32;100917.69;;;4.27;68.89
62946;BME280;52164;52.212;-1.010;2023-04-25T07:16:58;100916.30;;;4.38;68.81
62946;BME280;52164;52.212;-1.010;2023-04-25T07:19:23;100920.80;;;4.47;68.34
62946;BME280;52164;52.212;-1.010;2023-04-25T07:21:51;100918.62;;;4.56;67.84
62946;BME280;52164;52.212;-1.010;2023-04-25T07:24:17;100921.90;;;4.65;67.83
62946;BME280;52164;52.212;-1.010;2023-04-25T07:26:42;100927.79;;;4.73;67.99
62946;BME280;52164;52.212;-1.010;2023-04-25T07:29:08;100926.92;;;4.80;67.44
62946;BME280;52164;52.212;-1.010;2023-04-25T07:31:34;100926.21;;;4.85;67.57
62946;BME280;52164;52.212;-1.010;2023-04-25T07:33:59;100928.55;;;4.92;66.80
62946;BME280;52164;52.212;-1.010;2023-04-25T07:36:24;100925.86;;;4.98;66.70
62946;BME280;52164;52.212;-1.010;2023-04-25T07:38:51;100929.41;;;5.04;66.42
62946;BME280;52164;52.212;-1.010;2023-04-25T07:41:17;100931.57;;;5.11;66.36
62946;BME280;52164;52.212;-1.010;2023-04-25T07:43:42;100932.63;;;5.17;66.46
62946;BME280;52164;52.212;-1.010;2023-04-25T07:46:07;100938.29;;;5.24;66.48
62946;BME280;52164;52.212;-1.010;2023-04-25T07:48:33;100943.27;;;5.31;66.15
62946;BME280;52164;52.212;-1.010;2023-04-25T07:50:58;100946.13;;;5.38;66.06
62946;BME280;52164;52.212;-1.010;2023-04-25T07:53:26;100948.09;;;5.45;65.93
62946;BME280;52164;52.212;-1.010;2023-04-25T07:55:51;100950.20;;;5.51;65.60
62946;BME280;52164;52.212;-1.010;2023-04-25T07:58:17;100951.27;;;5.58;65.41
62946;BME280;52164;52.212;-1.010;2023-04-25T08:00:46;100956.80;;;5.66;65.05
62946;BME280;52164;52.212;-1.010;2023-04-25T08:03:11;100961.20;;;5.71;64.52
62946;BME280;52164;52.212;-1.010;2023-04-25T08:05:37;100959.55;;;5.76;64.10
62946;BME280;52164;52.212;-1.010;2023-04-25T08:08:02;100964.52;;;5.82;64.15
62946;BME280;52164;52.212;-1.010;2023-04-25T08:10:28;100968.69;;;5.87;63.76
62946;BME280;52164;52.212;-1.010;2023-04-25T08:12:54;100967.09;;;5.93;63.41
62946;BME280;52164;52.212;-1.010;2023-04-25T08:15:20;100970.46;;;5.98;63.41
62946;BME280;52164;52.212;-1.010;2023-04-25T08:17:45;100971.84;;;6.04;63.37
62946;BME280;52164;52.212;-1.010;2023-04-25T08:20:11;100977.53;;;6.12;63.37
62946;BME280;52164;52.212;-1.010;2023-04-25T08:22:36;100976.63;;;6.19;63.08
62946;BME280;52164;52.212;-1.010;2023-04-25T08:25:02;100976.93;;;6.24;62.20
62946;BME280;52164;52.212;-1.010;2023-04-25T08:27:27;100979.34;;;6.28;61.89
62946;BME280;52164;52.212;-1.010;2023-04-25T08:29:52;100981.63;;;6.34;61.89
62946;BME280;52164;52.212;-1.010;2023-04-25T08:32:18;100980.36;;;6.40;61.68
62946;BME280;52164;52.212;-1.010;2023-04-25T08:34:44;100984.39;;;6.45;61.88
62946;BME280;52164;52.212;-1.010;2023-04-25T08:37:09;100982.91;;;6.51;61.45
62946;BME280;52164;52.212;-1.010;2023-04-25T08:39:35;100982.16;;;6.56;60.95
62946;BME280;52164;52.212;-1.010;2023-04-25T08:42:01;100981.71;;;6.60;60.60
62946;BME280;52164;52.212;-1.010;2023-04-25T08:44:28;100977.04;;;6.65;60.42
62946;BME280;52164;52.212;-1.010;2023-04-25T08:46:55;100977.87;;;6.70;59.74
62946;BME280;52164;52.212;-1.010;2023-04-25T08:49:20;100985.42;;;6.74;59.65
62946;BME280;52164;52.212;-1.010;2023-04-25T08:51:46;100986.77;;;6.79;59.73
62946;BME280;52164;52.212;-1.010;2023-04-25T08:54:15;100981.92;;;6.84;59.78
62946;BME280;52164;52.212;-1.010;2023-04-25T08:56:43;100983.11;;;6.89;59.81
62946;BME280;52164;52.212;-1.010;2023-04-25T08:59:10;100978.32;;;6.98;59.86
62946;BME280;52164;52.212;-1.010;2023-04-25T09:01:35;100972.10;;;7.05;59.71
62946;BME280;52164;52.212;-1.010;2023-04-25T09:04:01;100972.73;;;7.10;59.54
62946;BME280;52164;52.212;-1.010;2023-04-25T09:06:27;100976.38;;;7.14;59.28
62946;BME280;52164;52.212;-1.010;2023-04-25T09:08:52;100974.30;;;7.17;58.47
62946;BME280;52164;52.212;-1.010;2023-04-25T09:11:18;100971.15;;;7.20;58.75
62946;BME280;52164;52.212;-1.010;2023-04-25T09:13:45;100971.44;;;7.24;58.90
62946;BME280;52164;52.212;-1.010;2023-04-25T09:16:10;100966.44;;;7.31;59.37
62946;BME280;52164;52.212;-1.010;2023-04-25T09:18:35;100965.33;;;7.37;58.66
62946;BME280;52164;52.212;-1.010;2023-04-25T09:21:09;100966.16;;;7.45;58.44
62946;BME280;52164;52.212;-1.010;2023-04-25T09:23:50;100957.92;;;7.50;58.33
62946;BME280;52164;52.212;-1.010;2023-04-25T09:26:17;100956.45;;;7.56;57.67
62946;BME280;52164;52.212;-1.010;2023-04-25T09:28:43;100958.00;;;7.63;57.41
62946;BME280;52164;52.212;-1.010;2023-04-25T09:31:10;100959.56;;;7.70;56.82
62946;BME280;52164;52.212;-1.010;2023-04-25T09:33:36;100956.51;;;7.78;57.04
62946;BME280;52164;52.212;-1.010;2023-04-25T09:36:04;100954.48;;;7.84;57.15
62946;BME280;52164;52.212;-1.010;2023-04-25T09:38:31;100957.86;;;7.94;57.20
62946;BME280;52164;52.212;-1.010;2023-04-25T09:40:57;100957.45;;;8.01;56.67
62946;BME280;52164;52.212;-1.010;2023-04-25T09:43:22;100954.55;;;8.08;56.15
62946;BME280;52164;52.212;-1.010;2023-04-25T09:45:48;100953.26;;;8.15;56.30
62946;BME280;52164;52.212;-1.010;2023-04-25T09:48:18;100960.16;;;8.24;56.28
62946;BME280;52164;52.212;-1.010;2023-04-25T09:50:44;100961.36;;;8.32;55.30
62946;BME280;52164;52.212;-1.010;2023-04-25T09:53:09;100959.88;;;8.41;54.59
62946;BME280;52164;52.212;-1.010;2023-04-25T09:55:36;100961.05;;;8.45;54.48
62946;BME280;52164;52.212;-1.010;2023-04-25T09:58:04;100959.92;;;8.52;54.17
62946;BME280;52164;52.212;-1.010;2023-04-25T10:00:30;100954.70;;;8.60;53.79
62946;BME280;52164;52.212;-1.010;2023-04-25T10:02:56;100953.24;;;8.70;53.54
62946;BME280;52164;52.212;-1.010;2023-04-25T10:05:22;100953.92;;;8.80;53.18
62946;BME280;52164;52.212;-1.010;2023-04-25T10:07:49;100950.69;;;8.89;52.35
62946;BME280;52164;52.212;-1.010;2023-04-25T10:10:15;100946.48;;;8.94;51.60
62946;BME280;52164;52.212;-1.010;2023-04-25T10:12:41;100948.20;;;9.02;51.81
62946;BME280;52164;52.212;-1.010;2023-04-25T10:15:08;100946.88;;;9.11;51.52
62946;BME280;52164;52.212;-1.010;2023-04-25T10:17:34;100947.27;;;9.27;51.48
62946;BME280;52164;52.212;-1.010;2023-04-25T10:20:01;100950.66;;;9.45;51.43
62946;BME280;52164;52.212;-1.010;2023-04-25T10:22:31;100950.72;;;9.65;51.35
62946;BME280;52164;52.212;-1.010;2023-04-25T10:24:58;100951.63;;;9.85;50.87
62946;BME280;52164;52.212;-1.010;2023-04-25T10:27:23;100952.88;;;10.03;50.48
62946;BME280;52164;52.212;-1.010;2023-04-25T10:30:00;100951.60;;;10.20;50.85
62946;BME280;52164;52.212;-1.010;2023-04-25T10:32:25;100952.30;;;10.37;50.70
62946;BME280;52164;52.212;-1.010;2023-04-25T10:34:50;100953.17;;;10.56;50.27
62946;BME280;52164;52.212;-1.010;2023-04-25T10:37:15;100951.14;;;10.74;49.71
62946;BME280;52164;52.212;-1.010;2023-04-25T10:39:41;100950.89;;;10.91;49.58
62946;BME280;52164;52.212;-1.010;2023-04-25T10:42:06;100951.16;;;11.09;48.94
62946;BME280;52164;52.212;-1.010;2023-04-25T10:44:32;100957.64;;;11.19;49.15
62946;BME280;52164;52.212;-1.010;2023-04-25T10:46:59;100952.18;;;10.99;47.49
62946;BME280;52164;52.212;-1.010;2023-04-25T10:49:29;100953.35;;;10.84;47.22
62946;BME280;52164;52.212;-1.010;2023-04-25T10:52:12;100957.70;;;10.95;47.54
62946;BME280;52164;52.212;-1.010;2023-04-25T10:54:41;100954.95;;;11.18;47.32
62946;BME280;52164;52.212;-1.010;2023-04-25T10:57:14;100959.84;;;11.35;47.16
62946;BME280;52164;52.212;-1.010;2023-04-25T10:59:51;100959.21;;;11.56;46.89
62946;BME280;52164;52.212;-1.010;2023-04-25T11:02:16;100957.11;;;11.76;46.04
62946;BME280;52164;52.212;-1.010;2023-04-25T11:04:42;100959.31;;;11.93;46.13
62946;BME280;52164;52.212;-1.010;2023-04-25T11:07:10;100961.83;;;11.96;45.80
62946;BME280;52164;52.212;-1.010;2023-04-25T11:09:38;100960.23;;;11.98;45.12
62946;BME280;52164;52.212;-1.010;2023-04-25T11:12:06;100961.12;;;11.96;45.18
62946;BME280;52164;52.212;-1.010;2023-04-25T11:14:32;100959.66;;;11.95;44.43
62946;BME280;52164;52.212;-1.010;2023-04-25T11:16:59;100962.93;;;12.15;45.03
62946;BME280;52164;52.212;-1.010;2023-04-25T11:19:25;100961.51;;;12.39;45.75
62946;BME280;52164;52.212;-1.010;2023-04-25T11:21:51;100965.95;;;12.64;45.78
62946;BME280;52164;52.212;-1.010;2023-04-25T11:24:19;100961.27;;;12.85;45.10
62946;BME280;52164;52.212;-1.010;2023-04-25T11:26:46;100956.71;;;13.14;44.76
62946;BME280;52164;52.212;-1.010;2023-04-25T11:29:12;100962.18;;;13.43;44.41
62946;BME280;52164;52.212;-1.010;2023-04-25T11:31:37;100952.55;;;13.68;42.41
62946;BME280;52164;52.212;-1.010;2023-04-25T11:34:03;100952.39;;;13.93;42.36
62946;BME280;52164;52.212;-1.010;2023-04-25T11:36:28;100951.26;;;14.24;42.93
62946;BME280;52164;52.212;-1.010;2023-04-25T11:38:54;100951.10;;;14.23;40.89
62946;BME280;52164;52.212;-1.010;2023-04-25T11:41:19;100954.05;;;14.14;41.84
62946;BME280;52164;52.212;-1.010;2023-04-25T11:43:45;100955.92;;;14.01;41.81
62946;BME280;52164;52.212;-1.010;2023-04-25T11:46:11;100959.27;;;13.82;41.37
62946;BME280;52164;52.212;-1.010;2023-04-25T11:48:37;100958.10;;;13.70;41.56
62946;BME280;52164;52.212;-1.010;2023-04-25T11:51:02;100959.77;;;13.60;42.44
62946;BME280;52164;52.212;-1.010;2023-04-25T11:53:27;100957.71;;;13.37;41.82
62946;BME280;52164;52.212;-1.010;2023-04-25T11:55:53;100954.34;;;13.23;42.21
62946;BME280;52164;52.212;-1.010;2023-04-25T11:58:21;100958.41;;;13.47;43.23
62946;BME280;52164;52.212;-1.010;2023-04-25T12:00:46;100953.77;;;13.74;42.81
62946;BME280;52164;52.212;-1.010;2023-04-25T12:03:11;100956.98;;;14.03;43.13
62946;BME280;52164;52.212;-1.010;2023-04-25T12:05:37;100955.85;;;14.34;41.51
62946;BME280;52164;52.212;-1.010;2023-04-25T12:08:10;100951.31;;;14.63;41.95
62946;BME280;52164;52.212;-1.010;2023-04-25T12:10:40;100955.98;;;14.99;41.37
62946;BME280;52164;52.212;-1.010;2023-04-25T12:13:22;100953.23;;;15.33;41.24
62946;BME280;52164;52.212;-1.010;2023-04-25T12:15:47;100952.86;;;15.75;40.52
62946;BME280;52164;52.212;-1.010;2023-04-25T12:18:15;100951.71;;;15.94;38.66
62946;BME280;52164;52.212;-1.010;2023-04-25T12:20:41;100950.71;;;16.00;38.94
62946;BME280;52164;52.212;-1.010;2023-04-25T12:23:06;100947.75;;;15.81;39.30
62946;BME280;52164;52.212;-1.010;2023-04-25T12:28:17;100955.32;;;15.24;40.26
62946;BME280;52164;52.212;-1.010;2023-04-25T12:31:18;100956.36;;;14.79;38.95
62946;BME280;52164;52.212;-1.010;2023-04-25T12:33:33;100957.98;;;14.58;39.80
62946;BME280;52164;52.212;-1.010;2023-04-25T12:35:58;100956.35;;;14.60;40.43
62946;BME280;52164;52.212;-1.010;2023-04-25T12:38:24;100959.81;;;14.74;40.96
62946;BME280;52164;52.212;-1.010;2023-04-25T12:40:50;100958.67;;;14.98;39.57
62946;BME280;52164;52.212;-1.010;2023-04-25T12:43:16;100958.22;;;15.07;38.69
62946;BME280;52164;52.212;-1.010;2023-04-25T12:45:42;100955.27;;;14.98;38.03